sensor_id;sensor_type;location;lat;lon;timestamp;P1;durP1;ratioP1;P2;durP2;ratioP2
14907;SDS011;7545;52.092;7.006;2023-05-02T00:01:39;22.75;;;16.88;;
14907;SDS011;7545;52.092;7.006;2023-05-02T00:04:05;22.63;;;14.73;;
14907;SDS011;7545;52.092;7.006;2023-05-02T00:06:31;22.23;;;14.52;;
14907;SDS011;7545;52.092;7.006;2023-05-02T00:08:59;26.15;;;17.20;;
14907;SDS011;7545;52.092;7.006;2023-05-02T00:11:25;25.40;;;16.23;;
14907;SDS011;7545;52.092;7.006;2023-05-02T00:13:51;22.85;;;15.18;;
14907;SDS011;7545;52.092;7.006;2023-05-02T00:16:16;22.23;;;15.35;;
14907;SDS011;7545;52.092;7.006;2023-05-02T00:18:42;22.50;;;15.48;;
14907;SDS011;7545;52.092;7.006;2023-05-02T00:21:07;23.23;;;16.10;;
14907;SDS011;7545;52.092;7.006;2023-05-02T00:23:34;28.00;;;17.67;;
14907;SDS011;7545;52.092;7.006;2023-05-02T00:25:59;27.23;;;17.83;;
14907;SDS011;7545;52.092;7.006;2023-05-02T00:28:28;26.38;;;17.52;;
14907;SDS011;7545;52.092;7.006;2023-05-02T00:30:53;26.95;;;17.90;;
14907;SDS011;7545;52.092;7.006;2023-05-02T00:33:23;25.15;;;16.63;;
14907;SDS011;7545;52.092;7.006;2023-05-02T00:35:48;28.02;;;17.98;;
14907;SDS011;7545;52.092;7.006;2023-05-02T00:38:15;24.73;;;17.88;;
14907;SDS011;7545;52.092;7.006;2023-05-02T00:40:44;24.20;;;16.45;;
14907;SDS011;7545;52.092;7.006;2023-05-02T00:43:11;24.02;;;16.77;;
14907;SDS011;7545;52.092;7.006;2023-05-02T00:45:38;23.75;;;16.95;;
14907;SDS011;7545;52.092;7.006;2023-05-02T00:48:07;26.65;;;18.13;;
14907;SDS011;7545;52.092;7.006;2023-05-02T00:50:34;27.30;;;17.08;;
14907;SDS011;7545;52.092;7.006;2023-05-02T00:53:02;25.23;;;15.57;;
14907;SDS011;7545;52.092;7.006;2023-05-02T00:55:30;22.52;;;15.45;;
14907;SDS011;7545;52.092;7.006;2023-05-02T00:57:56;25.92;;;17.13;;
14907;SDS011;7545;52.092;7.006;2023-05-02T01:00:23;24.30;;;15.48;;
14907;SDS011;7545;52.092;7.006;2023-05-02T01:03:04;24.45;;;15.90;;
14907;SDS011;7545;52.092;7.006;2023-05-02T01:05:47;25.10;;;15.00;;
14907;SDS011;7545;52.092;7.006;2023-05-02T01:08:28;23.13;;;15.52;;
14907;SDS011;7545;52.092;7.006;2023-05-02T01:13:43;23.70;;;14.27;;
14907;SDS011;7545;52.092;7.006;2023-05-02T01:16:11;24.83;;;14.52;;
14907;SDS011;7545;52.092;7.006;2023-05-02T01:18:39;24.65;;;13.68;;
14907;SDS011;7545;52.092;7.006;2023-05-02T01:21:07;22.20;;;14.15;;
14907;SDS011;7545;52.092;7.006;2023-05-02T01:24:21;20.88;;;14.02;;
14907;SDS011;7545;52.092;7.006;2023-05-02T01:26:57;20.83;;;13.48;;
14907;SDS011;7545;52.092;7.006;2023-05-02T01:29:31;22.00;;;13.75;;
14907;SDS011;7545;52.092;7.006;2023-05-02T01:31:58;19.92;;;13.45;;
14907;SDS011;7545;52.092;7.006;2023-05-02T01:34:26;21.27;;;13.20;;
14907;SDS011;7545;52.092;7.006;2023-05-02T01:36:52;19.25;;;13.95;;
14907;SDS011;7545;52.092;7.006;2023-05-02T01:39:21;18.08;;;12.07;;
14907;SDS011;7545;52.092;7.006;2023-05-02T01:41:49;18.73;;;12.50;;
14907;SDS011;7545;52.092;7.006;2023-05-02T01:44:17;17.02;;;11.25;;
14907;SDS011;7545;52.092;7.006;2023-05-02T01:46:45;18.33;;;11.55;;
14907;SDS011;7545;52.092;7.006;2023-05-02T01:49:12;17.42;;;11.63;;
14907;SDS011;7545;52.092;7.006;2023-05-02T01:51:47;22.98;;;12.00;;
14907;SDS011;7545;52.092;7.006;2023-05-02T01:54:15;16.52;;;11.43;;
14907;SDS011;7545;52.092;7.006;2023-05-02T01:56:42;17.83;;;11.95;;
14907;SDS011;7545;52.092;7.006;2023-05-02T01:59:19;17.70;;;10.73;;
14907;SDS011;7545;52.092;7.006;2023-05-02T02:01:47;17.75;;;10.30;;
14907;SDS011;7545;52.092;7.006;2023-05-02T02:04:15;15.95;;;9.80;;
14907;SDS011;7545;52.092;7.006;2023-05-02T02:06:44;16.55;;;10.60;;
14907;SDS011;7545;52.092;7.006;2023-05-02T02:09:14;18.65;;;11.07;;
14907;SDS011;7545;52.092;7.006;2023-05-02T02:11:46;16.27;;;9.95;;
14907;SDS011;7545;52.092;7.006;2023-05-02T02:14:17;15.95;;;9.43;;
14907;SDS011;7545;52.092;7.006;2023-05-02T02:16:45;15.30;;;10.15;;
14907;SDS011;7545;52.092;7.006;2023-05-02T02:19:12;15.45;;;9.85;;
14907;SDS011;7545;52.092;7.006;2023-05-02T02:21:39;16.75;;;10.05;;
14907;SDS011;7545;52.092;7.006;2023-05-02T02:24:07;17.20;;;9.93;;
14907;SDS011;7545;52.092;7.006;2023-05-02T02:26:34;13.93;;;9.93;;
14907;SDS011;7545;52.092;7.006;2023-05-02T02:29:01;15.52;;;9.18;;
14907;SDS011;7545;52.092;7.006;2023-05-02T02:31:31;16.45;;;9.23;;
14907;SDS011;7545;52.092;7.006;2023-05-02T02:33:58;14.85;;;8.82;;
14907;SDS011;7545;52.092;7.006;2023-05-02T02:36:28;17.00;;;9.38;;
14907;SDS011;7545;52.092;7.006;2023-05-02T02:39:02;14.23;;;8.60;;
14907;SDS011;7545;52.092;7.006;2023-05-02T02:41:34;14.18;;;8.35;;
14907;SDS011;7545;52.092;7.006;2023-05-02T02:44:09;15.55;;;8.30;;
14907;SDS011;7545;52.092;7.006;2023-05-02T02:52:01;11.68;;;8.07;;
14907;SDS011;7545;52.092;7.006;2023-05-02T02:54:38;14.48;;;8.30;;
14907;SDS011;7545;52.092;7.006;2023-05-02T02:57:17;18.58;;;8.40;;
14907;SDS011;7545;52.092;7.006;2023-05-02T03:00:04;13.10;;;8.38;;
14907;SDS011;7545;52.092;7.006;2023-05-02T03:02:35;11.52;;;6.68;;
14907;SDS011;7545;52.092;7.006;2023-05-02T03:05:01;13.02;;;7.32;;
14907;SDS011;7545;52.092;7.006;2023-05-02T03:07:28;11.15;;;7.07;;
14907;SDS011;7545;52.092;7.006;2023-05-02T03:09:54;11.90;;;6.63;;
14907;SDS011;7545;52.092;7.006;2023-05-02T03:12:20;8.15;;;5.68;;
14907;SDS011;7545;52.092;7.006;2023-05-02T03:14:46;11.07;;;5.97;;
14907;SDS011;7545;52.092;7.006;2023-05-02T03:17:12;13.98;;;6.80;;
14907;SDS011;7545;52.092;7.006;2023-05-02T03:19:37;7.47;;;6.10;;
14907;SDS011;7545;52.092;7.006;2023-05-02T03:22:03;5.80;;;4.20;;
14907;SDS011;7545;52.092;7.006;2023-05-02T03:24:29;4.72;;;3.42;;
14907;SDS011;7545;52.092;7.006;2023-05-02T03:26:55;4.35;;;2.65;;
14907;SDS011;7545;52.092;7.006;2023-05-02T03:29:23;3.22;;;2.65;;
14907;SDS011;7545;52.092;7.006;2023-05-02T03:31:49;3.55;;;1.98;;
14907;SDS011;7545;52.092;7.006;2023-05-02T03:34:15;4.88;;;2.13;;
14907;SDS011;7545;52.092;7.006;2023-05-02T03:36:40;2.63;;;1.73;;
14907;SDS011;7545;52.092;7.006;2023-05-02T03:39:06;3.25;;;1.50;;
14907;SDS011;7545;52.092;7.006;2023-05-02T03:41:31;3.40;;;2.05;;
14907;SDS011;7545;52.092;7.006;2023-05-02T03:43:57;2.63;;;1.40;;
14907;SDS011;7545;52.092;7.006;2023-05-02T03:46:23;3.42;;;1.30;;
14907;SDS011;7545;52.092;7.006;2023-05-02T03:48:49;1.75;;;1.33;;
14907;SDS011;7545;52.092;7.006;2023-05-02T03:51:14;3.97;;;1.92;;
14907;SDS011;7545;52.092;7.006;2023-05-02T03:53:40;2.85;;;1.70;;
14907;SDS011;7545;52.092;7.006;2023-05-02T03:56:06;3.80;;;1.55;;
14907;SDS011;7545;52.092;7.006;2023-05-02T03:58:32;1.98;;;1.38;;
14907;SDS011;7545;52.092;7.006;2023-05-02T04:01:00;2.70;;;1.33;;
14907;SDS011;7545;52.092;7.006;2023-05-02T04:03:26;4.85;;;1.60;;
14907;SDS011;7545;52.092;7.006;2023-05-02T04:05:52;2.85;;;0.90;;
14907;SDS011;7545;52.092;7.006;2023-05-02T04:08:18;1.42;;;1.20;;
14907;SDS011;7545;52.092;7.006;2023-05-02T04:10:44;4.10;;;1.17;;
14907;SDS011;7545;52.092;7.006;2023-05-02T04:13:09;1.70;;;1.48;;
14907;SDS011;7545;52.092;7.006;2023-05-02T04:15:35;3.38;;;1.42;;
14907;SDS011;7545;52.092;7.006;2023-05-02T04:18:01;2.67;;;1.20;;
14907;SDS011;7545;52.092;7.006;2023-05-02T04:20:27;2.75;;;1.42;;
14907;SDS011;7545;52.092;7.006;2023-05-02T04:22:53;3.15;;;1.02;;
14907;SDS011;7545;52.092;7.006;2023-05-02T04:25:19;2.00;;;1.25;;
14907;SDS011;7545;52.092;7.006;2023-05-02T04:27:45;2.28;;;1.20;;
14907;SDS011;7545;52.092;7.006;2023-05-02T04:30:11;1.48;;;1.23;;
14907;SDS011;7545;52.092;7.006;2023-05-02T04:32:37;2.97;;;1.15;;
14907;SDS011;7545;52.092;7.006;2023-05-02T04:35:03;1.23;;;1.10;;
14907;SDS011;7545;52.092;7.006;2023-05-02T04:37:29;1.80;;;1.02;;
14907;SDS011;7545;52.092;7.006;2023-05-02T04:39:54;5.03;;;1.40;;
14907;SDS011;7545;52.092;7.006;2023-05-02T04:42:20;2.90;;;1.23;;
14907;SDS011;7545;52.092;7.006;2023-05-02T04:44:47;3.25;;;1.30;;
14907;SDS011;7545;52.092;7.006;2023-05-02T04:47:13;2.35;;;2.15;;
14907;SDS011;7545;52.092;7.006;2023-05-02T04:49:39;3.47;;;1.30;;
14907;SDS011;7545;52.092;7.006;2023-05-02T04:52:05;2.78;;;1.33;;
14907;SDS011;7545;52.092;7.006;2023-05-02T04:54:31;4.53;;;1.52;;
14907;SDS011;7545;52.092;7.006;2023-05-02T04:56:58;2.97;;;1.30;;
14907;SDS011;7545;52.092;7.006;2023-05-02T04:59:23;4.40;;;1.80;;
14907;SDS011;7545;52.092;7.006;2023-05-02T05:01:49;7.43;;;1.63;;
14907;SDS011;7545;52.092;7.006;2023-05-02T05:04:15;2.10;;;1.65;;
14907;SDS011;7545;52.092;7.006;2023-05-02T05:06:40;3.35;;;1.73;;
14907;SDS011;7545;52.092;7.006;2023-05-02T05:09:06;2.25;;;1.65;;
14907;SDS011;7545;52.092;7.006;2023-05-02T05:11:32;3.45;;;1.13;;
14907;SDS011;7545;52.092;7.006;2023-05-02T05:13:57;2.88;;;1.33;;
14907;SDS011;7545;52.092;7.006;2023-05-02T05:16:23;4.90;;;1.60;;
14907;SDS011;7545;52.092;7.006;2023-05-02T05:18:48;3.25;;;1.38;;
14907;SDS011;7545;52.092;7.006;2023-05-02T05:21:14;2.53;;;1.42;;
14907;SDS011;7545;52.092;7.006;2023-05-02T05:23:40;1.00;;;1.00;;
14907;SDS011;7545;52.092;7.006;2023-05-02T05:26:10;4.15;;;1.50;;
14907;SDS011;7545;52.092;7.006;2023-05-02T05:28:37;2.75;;;1.23;;
14907;SDS011;7545;52.092;7.006;2023-05-02T05:31:10;2.75;;;1.40;;
14907;SDS011;7545;52.092;7.006;2023-05-02T05:33:37;2.30;;;1.23;;
14907;SDS011;7545;52.092;7.006;2023-05-02T05:36:06;2.50;;;1.30;;
14907;SDS011;7545;52.092;7.006;2023-05-02T05:38:33;3.50;;;2.30;;
14907;SDS011;7545;52.092;7.006;2023-05-02T05:40:59;1.85;;;1.15;;
14907;SDS011;7545;52.092;7.006;2023-05-02T05:43:25;4.22;;;2.05;;
14907;SDS011;7545;52.092;7.006;2023-05-02T05:45:51;2.75;;;1.67;;
14907;SDS011;7545;52.092;7.006;2023-05-02T05:48:17;4.93;;;1.67;;
14907;SDS011;7545;52.092;7.006;2023-05-02T05:50:43;3.35;;;1.85;;
14907;SDS011;7545;52.092;7.006;2023-05-02T05:53:09;3.92;;;1.70;;
14907;SDS011;7545;52.092;7.006;2023-05-02T05:55:34;3.28;;;1.85;;
14907;SDS011;7545;52.092;7.006;2023-05-02T05:58:02;4.45;;;2.38;;
14907;SDS011;7545;52.092;7.006;2023-05-02T06:00:27;3.80;;;2.20;;
14907;SDS011;7545;52.092;7.006;2023-05-02T06:02:53;5.53;;;2.42;;
14907;SDS011;7545;52.092;7.006;2023-05-02T06:05:19;6.13;;;2.55;;
14907;SDS011;7545;52.092;7.006;2023-05-02T06:07:44;6.88;;;2.50;;
14907;SDS011;7545;52.092;7.006;2023-05-02T06:10:10;5.93;;;2.13;;
14907;SDS011;7545;52.092;7.006;2023-05-02T06:12:36;6.90;;;2.78;;
14907;SDS011;7545;52.092;7.006;2023-05-02T06:15:01;5.50;;;2.65;;
14907;SDS011;7545;52.092;7.006;2023-05-02T06:17:30;8.93;;;2.40;;
14907;SDS011;7545;52.092;7.006;2023-05-02T06:19:56;8.48;;;2.72;;
14907;SDS011;7545;52.092;7.006;2023-05-02T06:22:22;9.52;;;2.90;;
14907;SDS011;7545;52.092;7.006;2023-05-02T06:24:47;6.20;;;2.40;;
14907;SDS011;7545;52.092;7.006;2023-05-02T06:27:13;11.35;;;2.60;;
14907;SDS011;7545;52.092;7.006;2023-05-02T06:29:38;9.70;;;2.95;;
14907;SDS011;7545;52.092;7.006;2023-05-02T06:32:04;7.25;;;2.80;;
14907;SDS011;7545;52.092;7.006;2023-05-02T06:34:30;7.32;;;2.60;;
14907;SDS011;7545;52.092;7.006;2023-05-02T06:36:57;8.93;;;3.13;;
14907;SDS011;7545;52.092;7.006;2023-05-02T06:39:23;10.25;;;2.63;;
14907;SDS011;7545;52.092;7.006;2023-05-02T06:41:48;4.47;;;2.33;;
14907;SDS011;7545;52.092;7.006;2023-05-02T06:44:14;7.70;;;2.85;;
14907;SDS011;7545;52.092;7.006;2023-05-02T06:46:40;6.13;;;2.80;;
14907;SDS011;7545;52.092;7.006;2023-05-02T06:49:06;10.35;;;3.13;;
14907;SDS011;7545;52.092;7.006;2023-05-02T06:51:31;5.32;;;2.13;;
14907;SDS011;7545;52.092;7.006;2023-05-02T06:53:57;12.30;;;2.42;;
14907;SDS011;7545;52.092;7.006;2023-05-02T06:56:23;7.63;;;2.60;;
14907;SDS011;7545;52.092;7.006;2023-05-02T06:58:52;3.92;;;1.70;;
14907;SDS011;7545;52.092;7.006;2023-05-02T07:01:18;11.20;;;2.50;;
14907;SDS011;7545;52.092;7.006;2023-05-02T07:03:44;5.65;;;2.03;;
14907;SDS011;7545;52.092;7.006;2023-05-02T07:06:10;7.40;;;2.10;;
14907;SDS011;7545;52.092;7.006;2023-05-02T07:08:36;12.02;;;3.55;;
14907;SDS011;7545;52.092;7.006;2023-05-02T07:11:01;3.25;;;1.95;;
14907;SDS011;7545;52.092;7.006;2023-05-02T07:13:27;7.63;;;2.22;;
14907;SDS011;7545;52.092;7.006;2023-05-02T07:15:53;7.28;;;1.42;;
14907;SDS011;7545;52.092;7.006;2023-05-02T07:18:19;6.20;;;1.75;;
14907;SDS011;7545;52.092;7.006;2023-05-02T07:20:45;4.03;;;1.70;;
14907;SDS011;7545;52.092;7.006;2023-05-02T07:23:11;3.88;;;1.67;;
14907;SDS011;7545;52.092;7.006;2023-05-02T07:25:36;5.13;;;1.67;;
14907;SDS011;7545;52.092;7.006;2023-05-02T07:28:03;10.38;;;1.90;;
14907;SDS011;7545;52.092;7.006;2023-05-02T07:30:30;8.20;;;1.95;;
14907;SDS011;7545;52.092;7.006;2023-05-02T07:32:55;5.93;;;2.60;;
14907;SDS011;7545;52.092;7.006;2023-05-02T07:35:21;6.95;;;2.53;;
14907;SDS011;7545;52.092;7.006;2023-05-02T07:37:47;9.95;;;2.90;;
14907;SDS011;7545;52.092;7.006;2023-05-02T07:40:12;4.60;;;1.98;;
14907;SDS011;7545;52.092;7.006;2023-05-02T07:42:38;7.97;;;2.38;;
14907;SDS011;7545;52.092;7.006;2023-05-02T07:45:05;3.45;;;1.40;;
14907;SDS011;7545;52.092;7.006;2023-05-02T07:47:32;13.07;;;2.53;;
14907;SDS011;7545;52.092;7.006;2023-05-02T07:49:57;9.15;;;2.30;;
14907;SDS011;7545;52.092;7.006;2023-05-02T07:52:23;4.10;;;1.48;;
14907;SDS011;7545;52.092;7.006;2023-05-02T07:54:49;7.60;;;1.88;;
14907;SDS011;7545;52.092;7.006;2023-05-02T07:57:16;7.53;;;2.10;;
14907;SDS011;7545;52.092;7.006;2023-05-02T07:59:42;4.25;;;1.63;;
14907;SDS011;7545;52.092;7.006;2023-05-02T08:02:07;9.20;;;2.15;;
14907;SDS011;7545;52.092;7.006;2023-05-02T08:04:33;5.93;;;1.38;;
14907;SDS011;7545;52.092;7.006;2023-05-02T08:06:59;4.60;;;1.23;;
14907;SDS011;7545;52.092;7.006;2023-05-02T08:09:24;5.30;;;1.75;;
14907;SDS011;7545;52.092;7.006;2023-05-02T08:11:50;2.15;;;1.13;;
14907;SDS011;7545;52.092;7.006;2023-05-02T08:14:16;3.60;;;1.58;;
14907;SDS011;7545;52.092;7.006;2023-05-02T08:16:42;3.38;;;1.15;;
14907;SDS011;7545;52.092;7.006;2023-05-02T08:19:07;6.55;;;2.00;;
14907;SDS011;7545;52.092;7.006;2023-05-02T08:21:33;2.25;;;1.15;;
14907;SDS011;7545;52.092;7.006;2023-05-02T08:23:59;5.22;;;1.55;;
14907;SDS011;7545;52.092;7.006;2023-05-02T08:26:25;2.45;;;1.10;;
14907;SDS011;7545;52.092;7.006;2023-05-02T08:28:52;4.70;;;1.00;;
14907;SDS011;7545;52.092;7.006;2023-05-02T08:31:19;4.25;;;1.55;;
14907;SDS011;7545;52.092;7.006;2023-05-02T08:33:45;5.35;;;1.40;;
14907;SDS011;7545;52.092;7.006;2023-05-02T08:36:11;4.80;;;1.27;;
14907;SDS011;7545;52.092;7.006;2023-05-02T08:38:38;1.25;;;0.90;;
14907;SDS011;7545;52.092;7.006;2023-05-02T08:41:13;3.75;;;1.20;;
14907;SDS011;7545;52.092;7.006;2023-05-02T08:43:41;4.28;;;1.10;;
14907;SDS011;7545;52.092;7.006;2023-05-02T08:46:08;6.50;;;2.05;;
14907;SDS011;7545;52.092;7.006;2023-05-02T08:48:35;3.25;;;0.90;;
14907;SDS011;7545;52.092;7.006;2023-05-02T08:51:02;5.18;;;1.27;;
14907;SDS011;7545;52.092;7.006;2023-05-02T08:53:33;3.67;;;1.27;;
14907;SDS011;7545;52.092;7.006;2023-05-02T08:55:59;4.57;;;1.50;;
14907;SDS011;7545;52.092;7.006;2023-05-02T08:58:26;5.25;;;1.60;;
14907;SDS011;7545;52.092;7.006;2023-05-02T09:00:51;3.78;;;1.25;;
14907;SDS011;7545;52.092;7.006;2023-05-02T09:03:25;5.20;;;1.17;;
14907;SDS011;7545;52.092;7.006;2023-05-02T09:06:02;5.00;;;1.33;;
14907;SDS011;7545;52.092;7.006;2023-05-02T09:08:28;2.13;;;1.10;;
14907;SDS011;7545;52.092;7.006;2023-05-02T09:10:54;4.88;;;1.38;;
14907;SDS011;7545;52.092;7.006;2023-05-02T09:16:09;4.70;;;1.10;;
14907;SDS011;7545;52.092;7.006;2023-05-02T09:18:37;5.30;;;1.42;;
14907;SDS011;7545;52.092;7.006;2023-05-02T09:21:07;4.10;;;1.10;;
14907;SDS011;7545;52.092;7.006;2023-05-02T09:23:44;5.40;;;1.38;;
14907;SDS011;7545;52.092;7.006;2023-05-02T09:26:18;3.55;;;1.52;;
14907;SDS011;7545;52.092;7.006;2023-05-02T09:28:52;5.15;;;1.65;;
14907;SDS011;7545;52.092;7.006;2023-05-02T09:31:19;3.55;;;1.20;;
14907;SDS011;7545;52.092;7.006;2023-05-02T09:33:54;4.28;;;1.60;;
14907;SDS011;7545;52.092;7.006;2023-05-02T09:36:21;7.32;;;2.80;;
14907;SDS011;7545;52.092;7.006;2023-05-02T09:38:47;5.15;;;1.33;;
14907;SDS011;7545;52.092;7.006;2023-05-02T09:41:14;3.28;;;1.35;;
14907;SDS011;7545;52.092;7.006;2023-05-02T09:43:41;7.45;;;1.75;;
14907;SDS011;7545;52.092;7.006;2023-05-02T09:46:08;3.65;;;1.73;;
14907;SDS011;7545;52.092;7.006;2023-05-02T09:48:56;4.65;;;1.50;;
14907;SDS011;7545;52.092;7.006;2023-05-02T09:51:22;2.90;;;1.80;;
14907;SDS011;7545;52.092;7.006;2023-05-02T09:53:48;2.10;;;1.33;;
14907;SDS011;7545;52.092;7.006;2023-05-02T09:56:14;4.13;;;1.70;;
14907;SDS011;7545;52.092;7.006;2023-05-02T09:58:40;3.70;;;1.30;;
14907;SDS011;7545;52.092;7.006;2023-05-02T10:01:06;4.40;;;1.58;;
14907;SDS011;7545;52.092;7.006;2023-05-02T10:03:34;4.50;;;1.55;;
14907;SDS011;7545;52.092;7.006;2023-05-02T10:06:02;3.83;;;1.50;;
14907;SDS011;7545;52.092;7.006;2023-05-02T10:08:29;4.68;;;1.83;;
14907;SDS011;7545;52.092;7.006;2023-05-02T10:10:58;4.18;;;1.83;;
14907;SDS011;7545;52.092;7.006;2023-05-02T10:13:26;6.32;;;1.85;;
14907;SDS011;7545;52.092;7.006;2023-05-02T10:16:02;7.22;;;1.67;;
14907;SDS011;7545;52.092;7.006;2023-05-02T10:18:45;3.17;;;1.60;;
14907;SDS011;7545;52.092;7.006;2023-05-02T10:21:30;7.03;;;1.50;;
14907;SDS011;7545;52.092;7.006;2023-05-02T10:23:56;8.55;;;1.92;;
14907;SDS011;7545;52.092;7.006;2023-05-02T10:26:23;3.60;;;1.50;;
14907;SDS011;7545;52.092;7.006;2023-05-02T10:28:49;8.98;;;3.05;;
14907;SDS011;7545;52.092;7.006;2023-05-02T10:31:15;5.60;;;2.33;;
14907;SDS011;7545;52.092;7.006;2023-05-02T10:33:42;5.88;;;2.08;;
14907;SDS011;7545;52.092;7.006;2023-05-02T10:36:09;7.65;;;2.13;;
14907;SDS011;7545;52.092;7.006;2023-05-02T10:38:38;6.10;;;1.88;;
14907;SDS011;7545;52.092;7.006;2023-05-02T10:41:18;6.20;;;1.95;;
14907;SDS011;7545;52.092;7.006;2023-05-02T10:43:50;7.10;;;1.95;;
14907;SDS011;7545;52.092;7.006;2023-05-02T10:49:01;5.78;;;1.75;;
14907;SDS011;7545;52.092;7.006;2023-05-02T10:51:32;3.83;;;2.15;;
14907;SDS011;7545;52.092;7.006;2023-05-02T10:59:36;5.47;;;2.10;;
14907;SDS011;7545;52.092;7.006;2023-05-02T11:02:02;6.47;;;2.13;;
14907;SDS011;7545;52.092;7.006;2023-05-02T11:07:36;4.72;;;1.95;;
14907;SDS011;7545;52.092;7.006;2023-05-02T11:12:42;3.67;;;1.85;;
14907;SDS011;7545;52.092;7.006;2023-05-02T11:18:03;5.18;;;1.98;;
14907;SDS011;7545;52.092;7.006;2023-05-02T11:20:33;5.53;;;2.30;;
14907;SDS011;7545;52.092;7.006;2023-05-02T11:23:20;5.75;;;1.83;;
14907;SDS011;7545;52.092;7.006;2023-05-02T11:33:59;4.35;;;1.90;;
14907;SDS011;7545;52.092;7.006;2023-05-02T11:36:29;9.45;;;3.47;;
14907;SDS011;7545;52.092;7.006;2023-05-02T11:38:57;4.75;;;2.22;;
14907;SDS011;7545;52.092;7.006;2023-05-02T11:41:37;7.07;;;3.00;;
14907;SDS011;7545;52.092;7.006;2023-05-02T11:44:06;7.45;;;2.10;;
14907;SDS011;7545;52.092;7.006;2023-05-02T11:46:32;7.03;;;2.08;;
14907;SDS011;7545;52.092;7.006;2023-05-02T11:49:01;4.47;;;2.65;;
14907;SDS011;7545;52.092;7.006;2023-05-02T11:51:27;5.90;;;2.63;;
14907;SDS011;7545;52.092;7.006;2023-05-02T11:53:52;5.15;;;2.17;;
14907;SDS011;7545;52.092;7.006;2023-05-02T11:56:22;6.90;;;2.25;;
14907;SDS011;7545;52.092;7.006;2023-05-02T11:58:57;5.18;;;2.13;;
14907;SDS011;7545;52.092;7.006;2023-05-02T12:01:27;4.05;;;1.85;;
14907;SDS011;7545;52.092;7.006;2023-05-02T12:04:05;4.93;;;2.15;;
14907;SDS011;7545;52.092;7.006;2023-05-02T12:06:32;5.38;;;1.83;;
14907;SDS011;7545;52.092;7.006;2023-05-02T12:09:31;9.98;;;2.35;;
14907;SDS011;7545;52.092;7.006;2023-05-02T12:11:50;5.63;;;1.98;;
14907;SDS011;7545;52.092;7.006;2023-05-02T12:14:24;3.90;;;1.92;;
14907;SDS011;7545;52.092;7.006;2023-05-02T12:16:54;4.82;;;1.88;;
14907;SDS011;7545;52.092;7.006;2023-05-02T12:19:22;3.90;;;2.10;;
14907;SDS011;7545;52.092;7.006;2023-05-02T12:21:47;7.32;;;2.10;;
14907;SDS011;7545;52.092;7.006;2023-05-02T12:24:14;3.70;;;1.80;;
14907;SDS011;7545;52.092;7.006;2023-05-02T12:26:40;4.05;;;2.22;;
14907;SDS011;7545;52.092;7.006;2023-05-02T12:29:06;3.22;;;2.08;;
14907;SDS011;7545;52.092;7.006;2023-05-02T12:31:32;5.82;;;2.25;;
14907;SDS011;7545;52.092;7.006;2023-05-02T12:33:58;9.48;;;2.65;;
14907;SDS011;7545;52.092;7.006;2023-05-02T12:36:25;10.93;;;2.15;;
14907;SDS011;7545;52.092;7.006;2023-05-02T12:38:55;6.35;;;2.47;;
14907;SDS011;7545;52.092;7.006;2023-05-02T12:41:36;7.57;;;1.98;;
14907;SDS011;7545;52.092;7.006;2023-05-02T12:44:02;7.95;;;2.13;;
14907;SDS011;7545;52.092;7.006;2023-05-02T12:46:29;2.92;;;1.88;;
14907;SDS011;7545;52.092;7.006;2023-05-02T12:49:05;4.63;;;1.90;;
14907;SDS011;7545;52.092;7.006;2023-05-02T12:51:36;3.10;;;2.20;;
14907;SDS011;7545;52.092;7.006;2023-05-02T12:54:03;5.63;;;2.50;;
14907;SDS011;7545;52.092;7.006;2023-05-02T12:56:29;3.70;;;2.10;;
14907;SDS011;7545;52.092;7.006;2023-05-02T12:59:03;7.68;;;2.47;;
14907;SDS011;7545;52.092;7.006;2023-05-02T13:01:29;5.07;;;3.08;;
14907;SDS011;7545;52.092;7.006;2023-05-02T13:03:57;6.38;;;2.30;;
14907;SDS011;7545;52.092;7.006;2023-05-02T13:06:23;4.15;;;2.05;;
14907;SDS011;7545;52.092;7.006;2023-05-02T13:08:48;5.05;;;1.95;;
14907;SDS011;7545;52.092;7.006;2023-05-02T13:11:14;7.85;;;2.78;;
14907;SDS011;7545;52.092;7.006;2023-05-02T13:13:39;4.88;;;2.15;;
14907;SDS011;7545;52.092;7.006;2023-05-02T13:16:05;5.38;;;2.72;;
14907;SDS011;7545;52.092;7.006;2023-05-02T13:18:32;3.42;;;2.38;;
14907;SDS011;7545;52.092;7.006;2023-05-02T13:20:57;5.20;;;2.38;;
14907;SDS011;7545;52.092;7.006;2023-05-02T13:23:23;5.30;;;2.17;;
14907;SDS011;7545;52.092;7.006;2023-05-02T13:25:48;6.43;;;1.92;;
14907;SDS011;7545;52.092;7.006;2023-05-02T13:28:14;6.68;;;2.40;;
14907;SDS011;7545;52.092;7.006;2023-05-02T13:30:40;5.57;;;2.33;;
14907;SDS011;7545;52.092;7.006;2023-05-02T13:33:05;4.43;;;1.77;;
14907;SDS011;7545;52.092;7.006;2023-05-02T13:35:31;6.22;;;2.53;;
14907;SDS011;7545;52.092;7.006;2023-05-02T13:37:57;3.28;;;2.20;;
14907;SDS011;7545;52.092;7.006;2023-05-02T13:40:22;4.15;;;2.22;;
14907;SDS011;7545;52.092;7.006;2023-05-02T13:42:48;5.10;;;2.25;;
14907;SDS011;7545;52.092;7.006;2023-05-02T13:45:13;5.13;;;2.45;;
14907;SDS011;7545;52.092;7.006;2023-05-02T13:47:41;7.88;;;2.22;;
14907;SDS011;7545;52.092;7.006;2023-05-02T13:50:06;5.22;;;2.05;;
14907;SDS011;7545;52.092;7.006;2023-05-02T13:52:32;4.53;;;2.03;;
14907;SDS011;7545;52.092;7.006;2023-05-02T13:54:58;4.25;;;2.45;;
14907;SDS011;7545;52.092;7.006;2023-05-02T13:57:24;4.35;;;2.03;;
14907;SDS011;7545;52.092;7.006;2023-05-02T13:59:49;4.38;;;2.08;;
14907;SDS011;7545;52.092;7.006;2023-05-02T14:02:16;5.47;;;2.15;;
14907;SDS011;7545;52.092;7.006;2023-05-02T14:04:41;3.67;;;2.17;;
14907;SDS011;7545;52.092;7.006;2023-05-02T14:07:07;5.20;;;2.20;;
14907;SDS011;7545;52.092;7.006;2023-05-02T14:09:32;3.50;;;1.90;;
14907;SDS011;7545;52.092;7.006;2023-05-02T14:11:58;4.47;;;2.20;;
14907;SDS011;7545;52.092;7.006;2023-05-02T14:14:23;4.00;;;1.95;;
14907;SDS011;7545;52.092;7.006;2023-05-02T14:16:49;6.80;;;1.80;;
14907;SDS011;7545;52.092;7.006;2023-05-02T14:19:15;8.80;;;2.75;;
14907;SDS011;7545;52.092;7.006;2023-05-02T14:21:41;3.58;;;2.00;;
14907;SDS011;7545;52.092;7.006;2023-05-02T14:24:06;4.18;;;2.10;;
14907;SDS011;7545;52.092;7.006;2023-05-02T14:26:32;3.22;;;1.95;;
14907;SDS011;7545;52.092;7.006;2023-05-02T14:28:58;3.88;;;2.40;;
14907;SDS011;7545;52.092;7.006;2023-05-02T14:31:24;6.65;;;1.92;;
14907;SDS011;7545;52.092;7.006;2023-05-02T14:33:50;5.20;;;2.17;;
14907;SDS011;7545;52.092;7.006;2023-05-02T14:36:15;7.03;;;2.72;;
14907;SDS011;7545;52.092;7.006;2023-05-02T14:38:41;4.43;;;2.20;;
14907;SDS011;7545;52.092;7.006;2023-05-02T14:41:07;2.33;;;1.70;;
14907;SDS011;7545;52.092;7.006;2023-05-02T14:43:33;7.38;;;1.88;;
14907;SDS011;7545;52.092;7.006;2023-05-02T14:45:59;4.13;;;2.03;;
14907;SDS011;7545;52.092;7.006;2023-05-02T14:48:24;3.05;;;1.95;;
14907;SDS011;7545;52.092;7.006;2023-05-02T14:50:50;2.25;;;1.55;;
14907;SDS011;7545;52.092;7.006;2023-05-02T14:53:15;3.53;;;1.90;;
14907;SDS011;7545;52.092;7.006;2023-05-02T14:55:41;6.78;;;1.67;;
14907;SDS011;7545;52.092;7.006;2023-05-02T14:58:10;6.43;;;2.35;;
14907;SDS011;7545;52.092;7.006;2023-05-02T15:00:36;5.95;;;1.80;;
14907;SDS011;7545;52.092;7.006;2023-05-02T15:03:05;5.07;;;2.00;;
14907;SDS011;7545;52.092;7.006;2023-05-02T15:05:31;4.18;;;1.58;;
14907;SDS011;7545;52.092;7.006;2023-05-02T15:07:57;3.45;;;1.95;;
14907;SDS011;7545;52.092;7.006;2023-05-02T15:10:23;3.05;;;1.60;;
14907;SDS011;7545;52.092;7.006;2023-05-02T15:12:49;5.32;;;1.83;;
14907;SDS011;7545;52.092;7.006;2023-05-02T15:15:15;4.90;;;1.63;;
14907;SDS011;7545;52.092;7.006;2023-05-02T15:17:41;4.28;;;1.20;;
14907;SDS011;7545;52.092;7.006;2023-05-02T15:20:07;2.53;;;1.52;;
14907;SDS011;7545;52.092;7.006;2023-05-02T15:22:34;2.38;;;1.35;;
14907;SDS011;7545;52.092;7.006;2023-05-02T15:24:59;3.22;;;1.35;;
14907;SDS011;7545;52.092;7.006;2023-05-02T15:27:25;1.75;;;1.20;;
14907;SDS011;7545;52.092;7.006;2023-05-02T15:29:50;2.78;;;1.23;;
14907;SDS011;7545;52.092;7.006;2023-05-02T15:32:16;3.33;;;1.40;;
14907;SDS011;7545;52.092;7.006;2023-05-02T15:34:42;2.17;;;1.42;;